Time;durP1;ratioP1;P1;durP2;ratioP2;P2;SDS_P1;SDS_P2;PMS_P1;PMS_P2;Temp;Humidity;BMP_temperature;BMP_pressure;BME280_temperature;BME280_humidity;BME280_pressure;Samples;Min_cycle;Max_cycle;Signal;HPM_P1;HPM_P2
2022/02/18 00:01:37;;;;;;;2.90;1.30;;;22.60;53.90;;;;;;6155136;23;20399;-80
2022/02/18 00:04:06;;;;;;;2.23;1.20;;;22.60;53.90;;;;;;6180503;23;20380;-81
2022/02/18 00:06:35;;;;;;;1.40;1.00;;;22.60;53.90;;;;;;6205146;23;20427;-81
2022/02/18 00:09:03;;;;;;;1.67;1.00;;;22.60;53.90;;;;;;6180922;23;20383;-81
2022/02/18 00:11:42;;;;;;;1.10;0.90;;;22.60;53.90;;;;;;6180656;23;20400;-81
2022/02/18 00:14:11;;;;;;;1.67;0.80;;;22.60;53.90;;;;;;6180641;23;20459;-82
2022/02/18 00:16:48;;;;;;;3.70;1.23;;;22.60;53.90;;;;;;6181231;23;20375;-82
2022/02/18 00:19:18;;;;;;;1.60;1.00;;;22.60;53.90;;;;;;6156476;23;20487;-81
2022/02/18 00:21:47;;;;;;;1.10;0.80;;;22.60;53.90;;;;;;6180259;23;20360;-81
2022/02/18 00:24:18;;;;;;;1.50;1.13;;;22.60;53.90;;;;;;6203458;23;20392;-82
2022/02/18 00:27:04;;;;;;;2.50;0.90;;;22.60;53.90;;;;;;6181385;23;20433;-82
2022/02/18 00:32:55;;;;;;;1.50;1.00;;;22.60;53.90;;;;;;6181429;23;20364;-81
2022/02/18 00:35:23;;;;;;;1.07;0.80;;;22.60;53.90;;;;;;6179860;23;20380;-81
2022/02/18 00:38:00;;;;;;;1.43;1.00;;;22.60;54.50;;;;;;6170481;23;20398;-81
2022/02/18 00:40:37;;;;;;;1.17;0.90;;;22.60;53.90;;;;;;6183841;23;20356;-81
2022/02/18 00:43:09;;;;;;;1.40;1.00;;;22.60;53.90;;;;;;6180066;23;20408;-81
2022/02/18 00:45:40;;;;;;;2.07;1.00;;;22.60;53.90;;;;;;6157874;23;20379;-81
2022/02/18 00:48:16;;;;;;;1.67;0.83;;;22.60;53.90;;;;;;6180489;23;20384;-80
2022/02/18 00:57:41;;;;;;;1.20;1.03;;;22.50;53.90;;;;;;6005841;23;20377;-81
2022/02/18 01:00:10;;;;;;;1.33;0.80;;;22.50;54.00;;;;;;5982634;24;20457;-81
2022/02/18 01:02:46;;;;;;;1.77;1.00;;;22.50;54.00;;;;;;6005298;24;20461;-80
2022/02/18 01:05:13;;;;;;;1.00;0.80;;;22.50;53.90;;;;;;6005621;24;20381;-82
2022/02/18 01:07:54;;;;;;;1.53;1.10;;;22.50;53.90;;;;;;6034559;23;20403;-81
2022/02/18 01:10:37;;;;;;;2.13;1.00;;;22.50;53.90;;;;;;6003859;23;20451;-81
2022/02/18 01:13:05;;;;;;;3.03;1.07;;;22.50;54.00;;;;;;6034219;23;20363;-82
2022/02/18 01:15:36;;;;;;;1.43;1.10;;;22.50;54.00;;;;;;6010103;23;20421;-82
2022/02/18 01:18:09;;;;;;;1.33;1.00;;;22.50;54.00;;;;;;6010253;23;20464;-82
2022/02/18 01:20:53;;;;;;;1.67;1.00;;;22.50;53.90;;;;;;6033802;23;20364;-81
2022/02/18 01:23:21;;;;;;;1.73;1.00;;;22.50;53.90;;;;;;6034216;23;20387;-81
2022/02/18 01:25:48;;;;;;;1.83;1.00;;;22.60;54.00;;;;;;6010273;23;20478;-82
2022/02/18 01:28:20;;;;;;;1.63;0.90;;;22.60;54.00;;;;;;6009858;23;20403;-81
2022/02/18 01:30:46;;;;;;;1.63;1.03;;;22.60;53.90;;;;;;6080541;23;20407;-81
2022/02/18 01:33:17;;;;;;;1.63;0.87;;;22.50;53.90;;;;;;6181758;23;20360;-81
2022/02/18 01:35:46;;;;;;;1.50;0.80;;;22.60;53.90;;;;;;6154917;23;20419;-82
2022/02/18 01:38:15;;;;;;;0.90;0.70;;;22.50;53.80;;;;;;6158167;23;20417;-82
2022/02/18 01:40:52;;;;;;;1.37;1.00;;;22.50;53.80;;;;;;6181657;23;20391;-82
2022/02/18 01:43:23;;;;;;;1.23;0.77;;;22.50;53.80;;;;;;6182933;23;20403;-82
2022/02/18 01:45:51;;;;;;;2.27;1.03;;;22.60;53.90;;;;;;6206930;23;20415;-82
2022/02/18 01:48:24;;;;;;;2.03;1.00;;;22.50;53.80;;;;;;6203327;23;20391;-81
2022/02/18 01:50:52;;;;;;;1.30;0.80;;;22.50;53.80;;;;;;6182402;23;20355;-81
2022/02/18 01:53:32;;;;;;;1.30;1.00;;;22.60;53.90;;;;;;6204386;23;20399;-81
2022/02/18 01:56:08;;;;;;;1.10;0.80;;;22.50;53.80;;;;;;6180769;23;20874;-81
2022/02/18 01:58:41;;;;;;;2.57;1.00;;;22.50;53.80;;;;;;6181820;23;20408;-81
2022/02/18 02:01:09;;;;;;;1.50;0.97;;;22.50;53.80;;;;;;6182441;23;20368;-81
2022/02/18 02:03:37;;;;;;;2.10;1.00;;;22.50;53.80;;;;;;6206045;23;20459;-82
2022/02/18 02:06:17;;;;;;;1.53;0.83;;;22.50;53.80;;;;;;6183043;23;20881;-82
2022/02/18 02:08:47;;;;;;;1.57;0.80;;;22.50;53.80;;;;;;6182326;23;20383;-82
2022/02/18 02:11:13;;;;;;;1.50;0.90;;;22.50;53.90;;;;;;6181231;23;20382;-82
2022/02/18 02:13:45;;;;;;;2.43;1.30;;;22.50;53.90;;;;;;6180407;23;20447;-82
2022/02/18 02:16:15;;;;;;;2.03;1.00;;;22.50;53.80;;;;;;6181555;23;20396;-81
2022/02/18 02:18:48;;;;;;;1.93;1.00;;;22.50;53.80;;;;;;6156706;23;20446;-81
2022/02/18 02:21:27;;;;;;;1.07;0.77;;;22.50;53.80;;;;;;6181293;23;20392;-82
2022/02/18 02:23:56;;;;;;;1.93;0.80;;;22.50;53.90;;;;;;6158258;23;20435;-82
2022/02/18 02:26:27;;;;;;;1.20;0.80;;;22.50;53.90;;;;;;6180711;23;20391;-81
2022/02/18 02:28:55;;;;;;;1.57;1.00;;;22.50;53.80;;;;;;6181971;23;20424;-82
2022/02/18 02:31:25;;;;;;;2.20;1.13;;;22.50;53.80;;;;;;6205959;23;20399;-82
2022/02/18 02:34:03;;;;;;;1.97;1.03;;;22.50;53.80;;;;;;6181175;23;20379;-82
2022/02/18 02:36:36;;;;;;;1.20;0.93;;;22.50;53.90;;;;;;6182622;23;20839;-82
2022/02/18 02:39:12;;;;;;;1.57;1.20;;;22.50;53.90;;;;;;6180940;23;20411;-82
2022/02/18 02:41:44;;;;;;;1.43;0.90;;;22.50;53.90;;;;;;6206208;23;20372;-82
2022/02/18 02:44:15;;;;;;;1.13;0.77;;;22.50;53.90;;;;;;6182411;23;20383;-81
2022/02/18 02:46:47;;;;;;;1.10;0.73;;;22.50;53.90;;;;;;6181299;23;20403;-81
2022/02/18 02:49:14;;;;;;;2.90;0.80;;;22.50;53.90;;;;;;6181469;23;20407;-81
2022/02/18 02:51:54;;;;;;;1.30;1.00;;;22.50;53.80;;;;;;6181301;23;20401;-81
2022/02/18 02:54:22;;;;;;;1.23;0.73;;;22.50;53.80;;;;;;6178552;23;20391;-81
2022/02/18 02:56:54;;;;;;;1.23;0.90;;;22.50;53.90;;;;;;6205658;23;20412;-81
2022/02/18 02:59:29;;;;;;;1.97;1.07;;;22.40;53.70;;;;;;6181805;23;20404;-81
2022/02/18 03:02:01;;;;;;;1.30;0.83;;;22.40;53.70;;;;;;6180658;23;20386;-81
2022/02/18 03:04:28;;;;;;;2.20;0.80;;;22.50;53.80;;;;;;6178666;23;20439;-80
2022/02/18 03:06:56;;;;;;;1.40;0.80;;;22.40;53.80;;;;;;6156516;23;20392;-81
2022/02/18 03:09:26;;;;;;;1.13;0.77;;;22.40;53.80;;;;;;6181023;23;20436;-81
2022/02/18 03:11:58;;;;;;;1.77;1.10;;;22.40;53.80;;;;;;6181795;23;20395;-81
2022/02/18 03:14:27;;;;;;;1.67;0.80;;;22.40;53.80;;;;;;6197924;23;20392;-81
2022/02/18 03:16:55;;;;;;;1.40;0.90;;;22.40;53.80;;;;;;6180742;23;20419;-81
2022/02/18 03:19:33;;;;;;;1.20;0.80;;;22.40;53.80;;;;;;6156090;23;20431;-81
2022/02/18 03:22:05;;;;;;;1.10;0.90;;;22.50;53.90;;;;;;6158850;23;20364;-81
2022/02/18 03:24:38;;;;;;;1.83;0.97;;;22.50;53.90;;;;;;6180168;23;20407;-81
2022/02/18 03:27:05;;;;;;;1.20;1.03;;;22.50;54.40;;;;;;6181284;23;20361;-81
2022/02/18 03:29:39;;;;;;;1.47;0.70;;;22.50;53.80;;;;;;6204350;23;20419;-81
2022/02/18 03:32:14;;;;;;;1.10;0.90;;;22.50;53.80;;;;;;6181381;23;20712;-81
2022/02/18 03:34:40;;;;;;;1.30;0.97;;;22.40;53.70;;;;;;6157788;23;20390;-81
2022/02/18 03:37:09;;;;;;;1.10;0.90;;;22.50;53.80;;;;;;6181339;23;20384;-81
2022/02/18 03:39:50;;;;;;;1.23;0.90;;;22.50;53.80;;;;;;6176278;23;20431;-81
2022/02/18 03:42:19;;;;;;;1.50;0.87;;;22.40;53.70;;;;;;6179746;23;20372;-81
2022/02/18 03:44:49;;;;;;;1.50;0.80;;;22.40;53.70;;;;;;6180230;23;20387;-81
2022/02/18 03:47:20;;;;;;;1.00;0.80;;;22.40;53.70;;;;;;6181624;23;20380;-81
2022/02/18 03:49:46;;;;;;;1.33;0.73;;;22.40;53.70;;;;;;6181078;23;20392;-81
2022/02/18 03:52:17;;;;;;;1.10;0.67;;;22.40;53.70;;;;;;6181656;23;20713;-81
2022/02/18 03:55:03;;;;;;;1.27;0.97;;;22.40;53.70;;;;;;6159907;23;20407;-80
2022/02/18 03:57:29;;;;;;;1.77;0.90;;;22.40;53.70;;;;;;6181051;23;20380;-82
2022/02/18 03:59:56;;;;;;;1.67;0.90;;;22.40;53.70;;;;;;6181249;23;20463;-82
2022/02/18 04:02:22;;;;;;;1.40;0.90;;;22.40;53.80;;;;;;6180438;23;20435;-82
2022/02/18 04:04:54;;;;;;;1.20;0.80;;;22.40;53.70;;;;;;6180933;23;20387;-82
2022/02/18 04:07:21;;;;;;;1.13;0.80;;;22.40;53.70;;;;;;6156997;23;20449;-82
2022/02/18 04:09:54;;;;;;;1.10;0.80;;;22.40;53.80;;;;;;6180056;23;20433;-82
2022/02/18 04:12:20;;;;;;;1.23;0.77;;;22.40;53.70;;;;;;6170293;23;20380;-82
2022/02/18 04:14:47;;;;;;;1.30;0.80;;;22.40;53.70;;;;;;6181010;23;20399;-81
2022/02/18 04:17:18;;;;;;;1.57;1.10;;;22.40;53.80;;;;;;6180522;23;20440;-82
2022/02/18 04:19:44;;;;;;;1.30;0.70;;;22.40;53.80;;;;;;6156220;23;20408;-82
2022/02/18 04:22:22;;;;;;;1.10;0.80;;;22.40;53.80;;;;;;6131041;23;20392;-82
2022/02/18 04:24:49;;;;;;;1.60;0.90;;;22.40;53.80;;;;;;6120344;23;20392;-82
2022/02/18 04:27:17;;;;;;;1.57;0.90;;;22.40;53.80;;;;;;6085684;23;20410;-82
2022/02/18 04:29:51;;;;;;;1.00;0.73;;;22.40;53.80;;;;;;6120761;23;20386;-82
2022/02/18 04:32:20;;;;;;;1.10;0.90;;;22.40;53.80;;;;;;6119554;23;20397;-82
2022/02/18 04:34:53;;;;;;;1.30;0.90;;;22.40;53.80;;;;;;6120231;23;20365;-82
2022/02/18 04:37:21;;;;;;;1.30;1.00;;;22.40;53.80;;;;;;6120067;23;20899;-82
2022/02/18 04:39:51;;;;;;;1.13;0.80;;;22.40;53.80;;;;;;6120154;23;20409;-82
2022/02/18 04:42:25;;;;;;;1.03;0.73;;;22.40;53.80;;;;;;6119390;23;20382;-82
2022/02/18 04:44:52;;;;;;;1.20;0.70;;;22.40;53.80;;;;;;6062678;23;20398;-82
2022/02/18 04:47:23;;;;;;;1.17;0.83;;;22.40;53.80;;;;;;6039450;23;20862;-82
2022/02/18 04:50:02;;;;;;;0.97;0.80;;;22.40;53.80;;;;;;6039964;23;20388;-82
2022/02/18 04:52:34;;;;;;;1.90;1.00;;;22.40;53.80;;;;;;6058327;23;20387;-82
2022/02/18 04:55:08;;;;;;;1.50;0.80;;;22.40;53.80;;;;;;6016116;23;20823;-82
2022/02/18 04:57:37;;;;;;;1.00;0.73;;;22.40;53.80;;;;;;6059215;23;20391;-82
2022/02/18 05:00:14;;;;;;;0.90;0.80;;;22.40;53.80;;;;;;6062153;23;20431;-82
2022/02/18 05:02:57;;;;;;;1.97;0.83;;;22.40;53.80;;;;;;6041093;23;20376;-83
2022/02/18 05:05:29;;;;;;;1.10;0.87;;;22.40;53.80;;;;;;6063383;23;20423;-82
2022/02/18 05:08:36;;;;;;;1.20;0.80;;;22.30;53.70;;;;;;6029453;23;20459;-82
2022/02/18 05:14:43;;;;;;;0.90;0.60;;;22.30;53.70;;;;;;6121362;23;20333;-82
2022/02/18 05:17:13;;;;;;;1.30;0.70;;;22.30;53.80;;;;;;6091462;23;20405;-82
2022/02/18 05:19:43;;;;;;;1.83;0.97;;;22.30;53.80;;;;;;6120550;23;20440;-82
2022/02/18 05:22:13;;;;;;;1.50;0.90;;;22.30;53.80;;;;;;6114125;23;20392;-82
2022/02/18 05:24:52;;;;;;;1.40;1.00;;;22.30;53.60;;;;;;6096428;23;20386;-81
2022/02/18 05:31:12;;;;;;;1.47;0.80;;;22.30;53.50;;;;;;6034816;23;20396;-80
2022/02/18 05:40:39;;;;;;;1.03;0.80;;;22.20;53.70;;;;;;6121969;23;20376;-82
2022/02/18 05:43:20;;;;;;;0.90;0.60;;;22.20;53.70;;;;;;6121648;23;20389;-81
2022/02/18 05:45:46;;;;;;;1.30;0.90;;;22.20;53.80;;;;;;6119825;23;20402;-82
2022/02/18 05:48:12;;;;;;;1.30;0.80;;;22.20;53.80;;;;;;6121507;23;20358;-82
2022/02/18 05:50:47;;;;;;;1.53;1.03;;;22.20;53.80;;;;;;6120945;23;20416;-82
2022/02/18 05:53:13;;;;;;;1.20;0.80;;;22.20;53.80;;;;;;6119582;23;20380;-82
2022/02/18 05:55:43;;;;;;;2.10;0.90;;;22.20;53.80;;;;;;6121487;23;20421;-81
2022/02/18 05:58:19;;;;;;;1.00;0.70;;;22.20;53.70;;;;;;6099948;23;20433;-82
2022/02/18 06:00:48;;;;;;;1.20;0.80;;;22.20;53.70;;;;;;6119785;23;20378;-82
2022/02/18 06:03:25;;;;;;;1.53;0.80;;;22.20;53.70;;;;;;6096774;23;20373;-82
2022/02/18 06:05:51;;;;;;;1.30;0.70;;;22.20;53.70;;;;;;6092616;23;20393;-85
2022/02/18 06:08:18;;;;;;;1.10;0.70;;;22.20;53.70;;;;;;6119714;23;20448;-82
2022/02/18 06:10:48;;;;;;;1.50;1.10;;;22.20;53.70;;;;;;6119679;23;20235;-82
2022/02/18 06:13:14;;;;;;;2.30;1.57;;;22.30;53.80;;;;;;6088679;23;20388;-82
2022/02/18 06:15:43;;;;;;;1.63;1.07;;;22.30;53.80;;;;;;6180351;23;20398;-82
2022/02/18 06:18:10;;;;;;;1.43;0.77;;;22.30;53.80;;;;;;6135855;23;20384;-82
2022/02/18 06:20:39;;;;;;;1.47;0.90;;;22.30;53.80;;;;;;6182294;23;20371;-82
2022/02/18 06:23:08;;;;;;;1.50;0.93;;;22.30;53.80;;;;;;6182455;23;20372;-82
2022/02/18 06:25:40;;;;;;;1.10;0.90;;;22.30;53.80;;;;;;6183319;23;20396;-82
2022/02/18 06:28:15;;;;;;;1.20;0.70;;;22.30;53.70;;;;;;6182767;23;20404;-82
2022/02/18 06:30:42;;;;;;;1.30;0.90;;;22.30;53.70;;;;;;6157682;23;20376;-82
2022/02/18 06:33:15;;;;;;;1.20;0.80;;;22.30;53.70;;;;;;6154832;23;20396;-82
2022/02/18 06:35:47;;;;;;;1.27;0.80;;;22.30;53.70;;;;;;6133598;23;20384;-82
2022/02/18 06:38:15;;;;;;;1.40;0.77;;;22.30;53.70;;;;;;6180901;23;20427;-81
2022/02/18 06:41:37;;;;;;;1.10;0.70;;;22.30;53.70;;;;;;6182351;23;20376;-83
2022/02/18 06:44:13;;;;;;;1.60;0.70;;;22.30;53.70;;;;;;6182071;23;20469;-80
2022/02/18 06:46:42;;;;;;;1.93;0.90;;;22.30;53.70;;;;;;6182791;23;20376;-80
2022/02/18 06:49:34;;;;;;;1.20;1.00;;;22.30;53.70;;;;;;6181398;23;20391;-82
2022/02/18 06:52:07;;;;;;;1.43;0.90;;;22.30;53.70;;;;;;6157230;23;20392;-81
2022/02/18 06:54:35;;;;;;;2.30;0.80;;;22.30;53.70;;;;;;6182076;23;20380;-81
2022/02/18 06:57:10;;;;;;;1.43;1.10;;;22.30;53.70;;;;;;6182653;23;20383;-81
2022/02/18 06:59:49;;;;;;;1.10;0.80;;;22.30;53.70;;;;;;6182208;23;20451;-81
2022/02/18 07:02:15;;;;;;;1.40;0.80;;;22.30;53.70;;;;;;6181580;23;20368;-80
2022/02/18 07:04:43;;;;;;;1.40;0.90;;;22.30;53.70;;;;;;6181352;23;20383;-81
2022/02/18 07:07:15;;;;;;;1.10;0.70;;;22.30;53.70;;;;;;6181439;23;20390;-81
2022/02/18 07:09:43;;;;;;;2.97;0.93;;;22.30;53.70;;;;;;6156733;23;20380;-81
2022/02/18 07:12:33;;;;;;;1.63;0.90;;;22.30;53.70;;;;;;6182804;23;20379;-81
2022/02/18 07:15:01;;;;;;;1.73;1.00;;;22.30;53.70;;;;;;6206549;23;20384;-81
2022/02/18 07:17:29;;;;;;;1.73;1.20;;;22.30;53.70;;;;;;6182342;23;20380;-81
2022/02/18 07:20:20;;;;;;;3.07;1.20;;;22.30;53.70;;;;;;6182119;23;20408;-81
2022/02/18 07:22:52;;;;;;;2.30;1.10;;;22.30;53.70;;;;;;6182354;23;20396;-81
2022/02/18 07:25:20;;;;;;;1.60;1.10;;;22.30;53.80;;;;;;6182753;23;20436;-81
2022/02/18 07:28:07;;;;;;;1.97;1.10;;;22.30;53.70;;;;;;6179382;23;20463;-81
2022/02/18 07:30:41;;;;;;;1.23;0.90;;;22.30;53.70;;;;;;6181821;23;20384;-81
2022/02/18 07:33:24;;;;;;;2.80;0.90;;;22.30;53.70;;;;;;6182363;23;20398;-82
2022/02/18 07:35:52;;;;;;;1.43;1.00;;;22.30;53.70;;;;;;6182201;23;20356;-82
2022/02/18 07:38:32;;;;;;;2.83;1.00;;;22.30;53.70;;;;;;6180608;23;20408;-82
2022/02/18 07:41:00;;;;;;;2.53;1.37;;;22.40;53.80;;;;;;6181061;23;20380;-82
2022/02/18 07:43:54;;;;;;;2.57;1.30;;;22.30;53.70;;;;;;6175586;23;20356;-82
2022/02/18 07:46:35;;;;;;;1.47;0.80;;;22.30;53.70;;;;;;6182853;23;20385;-82
2022/02/18 07:49:07;;;;;;;1.90;0.87;;;22.30;53.70;;;;;;6180081;23;20380;-81
2022/02/18 07:51:42;;;;;;;1.47;0.97;;;22.40;53.80;;;;;;6181353;23;20368;-82
2022/02/18 07:54:29;;;;;;;2.80;1.30;;;22.40;53.70;;;;;;6205903;23;20388;-80
2022/02/18 07:57:15;;;;;;;1.77;0.80;;;22.30;53.70;;;;;;6181104;23;20395;-80
2022/02/18 07:59:47;;;;;;;1.70;1.17;;;22.40;53.70;;;;;;6155671;23;20424;-80
2022/02/18 08:02:21;;;;;;;2.20;1.10;;;22.30;53.70;;;;;;6181508;23;20367;-81
2022/02/18 08:04:51;;;;;;;1.53;1.10;;;22.30;53.60;;;;;;6180515;23;20372;-81
2022/02/18 08:07:19;;;;;;;2.70;1.13;;;22.40;53.70;;;;;;6180832;23;20388;-81
2022/02/18 08:09:48;;;;;;;3.07;1.13;;;22.40;53.70;;;;;;6180878;23;20396;-81
2022/02/18 08:12:31;;;;;;;1.97;1.00;;;22.40;53.70;;;;;;6180605;23;20384;-80
2022/02/18 08:15:03;;;;;;;1.60;1.20;;;22.40;53.70;;;;;;6156283;23;20379;-80
2022/02/18 08:17:40;;;;;;;2.23;1.10;;;22.40;53.70;;;;;;6181667;23;20384;-82
2022/02/18 08:20:32;;;;;;;2.90;1.57;;;22.40;53.70;;;;;;6180274;23;20393;-80
2022/02/18 08:23:01;;;;;;;1.53;1.00;;;22.30;53.60;;;;;;6181069;23;20403;-81
2022/02/18 08:26:02;;;;;;;2.30;1.40;;;22.30;53.60;;;;;;6181191;23;20411;-80
2022/02/18 08:28:32;;;;;;;1.50;1.10;;;22.30;53.60;;;;;;6181799;23;20431;-80
2022/02/18 08:31:21;;;;;;;1.23;0.90;;;22.30;53.60;;;;;;6181814;23;20391;-80
2022/02/18 08:33:55;;;;;;;1.90;1.10;;;22.30;53.60;;;;;;6181174;23;20365;-81
2022/02/18 08:36:43;;;;;;;2.30;1.20;;;22.30;53.70;;;;;;6182063;23;20380;-80
2022/02/18 08:42:57;;;;;;;4.40;1.30;;;22.40;53.70;;;;;;6120821;23;20386;-80
2022/02/18 08:45:43;;;;;;;2.30;1.40;;;22.30;53.70;;;;;;6120010;23;20446;-81
2022/02/18 08:48:20;;;;;;;1.90;1.20;;;22.30;53.70;;;;;;6096026;23;20441;-81
2022/02/18 08:50:56;;;;;;;1.63;1.43;;;22.30;53.80;;;;;;6097460;23;20385;-81
2022/02/18 08:53:30;;;;;;;4.17;1.40;;;22.30;53.70;;;;;;6120324;23;20389;-82
2022/02/18 08:56:03;;;;;;;2.63;1.40;;;22.30;53.70;;;;;;6072799;23;20393;-81
2022/02/18 08:58:29;;;;;;;1.97;1.00;;;22.30;53.70;;;;;;6097471;23;20425;-81
2022/02/18 09:00:59;;;;;;;1.80;1.20;;;22.30;53.70;;;;;;6097732;23;20378;-81
2022/02/18 09:03:39;;;;;;;1.97;1.13;;;22.40;53.70;;;;;;6120317;23;20369;-80
2022/02/18 09:06:08;;;;;;;2.30;1.20;;;22.40;53.70;;;;;;6097440;23;20385;-80
2022/02/18 09:08:47;;;;;;;2.00;1.40;;;22.40;53.70;;;;;;6098490;23;20377;-80
2022/02/18 09:11:17;;;;;;;2.53;1.23;;;22.40;53.70;;;;;;6180298;23;20380;-81
2022/02/18 09:13:48;;;;;;;2.90;1.97;;;22.40;53.70;;;;;;6179619;23;20392;-80
2022/02/18 09:16:30;;;;;;;2.90;1.40;;;22.40;53.70;;;;;;6180764;23;20396;-81
2022/02/18 09:19:01;;;;;;;3.47;1.23;;;22.40;53.70;;;;;;6205380;23;20403;-81
2022/02/18 09:21:28;;;;;;;1.97;1.23;;;22.40;53.70;;;;;;6179581;23;20392;-81
2022/02/18 09:23:56;;;;;;;1.97;0.80;;;22.40;53.70;;;;;;6153828;23;20380;-81
2022/02/18 09:26:27;;;;;;;2.93;1.00;;;22.40;53.70;;;;;;6182333;23;20371;-81
2022/02/18 09:29:02;;;;;;;2.30;1.30;;;22.40;53.70;;;;;;6180575;23;20460;-80
2022/02/18 09:31:29;;;;;;;2.60;1.60;;;22.40;53.70;;;;;;6180497;23;20398;-81
2022/02/18 09:34:00;;;;;;;3.73;1.13;;;22.40;53.70;;;;;;6180642;23;20387;-81
2022/02/18 09:40:31;;;;;;;9.07;1.13;;;22.40;53.70;;;;;;6181398;23;20426;-80
2022/02/18 09:42:59;;;;;;;2.67;1.23;;;22.40;53.70;;;;;;6178317;23;20392;-79
2022/02/18 09:45:27;;;;;;;2.27;1.20;;;22.40;53.70;;;;;;6204646;23;20384;-79
2022/02/18 09:47:57;;;;;;;2.63;1.30;;;22.40;53.80;;;;;;6200773;23;20459;-80
2022/02/18 09:50:30;;;;;;;2.40;1.40;;;22.40;53.70;;;;;;6179314;23;20368;-80
2022/02/18 09:53:07;;;;;;;2.10;1.20;;;22.40;53.70;;;;;;6179407;23;20364;-80
2022/02/18 09:55:43;;;;;;;3.33;1.60;;;22.40;53.70;;;;;;6156863;23;20383;-80
2022/02/18 09:58:22;;;;;;;3.87;1.60;;;22.40;53.70;;;;;;6205987;23;20415;-79
2022/02/18 10:04:32;;;;;;;1.90;1.20;;;22.40;53.70;;;;;;6183570;23;20400;-81
2022/02/18 10:07:09;;;;;;;2.53;1.03;;;22.40;53.70;;;;;;6182907;23;20368;-79
2022/02/18 10:09:43;;;;;;;3.30;1.50;;;22.40;53.70;;;;;;6182047;23;20399;-79
2022/02/18 10:12:16;;;;;;;2.47;1.50;;;22.40;53.80;;;;;;6182012;23;20401;-80
2022/02/18 10:15:09;;;;;;;2.13;1.27;;;22.40;53.80;;;;;;6179803;23;20419;-80
2022/02/18 10:17:48;;;;;;;2.20;1.40;;;22.40;53.70;;;;;;6182629;23;20391;-80
2022/02/18 10:24:05;;;;;;;4.90;1.60;;;22.40;53.80;;;;;;6183654;23;20343;-79
2022/02/18 10:26:43;;;;;;;2.70;1.23;;;22.40;53.80;;;;;;6179576;23;20403;-79
2022/02/18 10:29:27;;;;;;;2.73;1.43;;;22.40;53.80;;;;;;6207052;23;20410;-79
2022/02/18 10:32:28;;;;;;;4.20;1.57;;;22.40;53.90;;;;;;6173517;23;20391;-81
2022/02/18 10:35:10;;;;;;;3.10;1.57;;;22.50;54.00;;;;;;6180928;23;20370;-80
2022/02/18 10:37:55;;;;;;;2.33;1.17;;;22.50;54.00;;;;;;6183664;23;20384;-80
2022/02/18 10:40:27;;;;;;;2.60;1.40;;;22.50;54.00;;;;;;6207511;23;20422;-80
2022/02/18 10:46:09;;;;;;;4.83;1.53;;;22.50;54.00;;;;;;6183249;23;20392;-80
2022/02/18 10:48:58;;;;;;;3.87;2.00;;;22.50;54.00;;;;;;6183642;23;20383;-79
2022/02/18 10:51:50;;;;;;;4.63;1.70;;;22.50;54.10;;;;;;6133956;23;20387;-79
2022/02/18 10:54:18;;;;;;;4.10;1.57;;;22.50;54.10;;;;;;6207561;23;20352;-79
2022/02/18 10:56:44;;;;;;;2.20;1.50;;;22.60;54.20;;;;;;6183302;23;20400;-81
2022/02/18 10:59:39;;;;;;;2.10;1.57;;;22.60;54.20;;;;;;6175702;23;20400;-79
2022/02/18 11:02:21;;;;;;;2.20;1.20;;;22.60;54.20;;;;;;6181917;23;20407;-79
2022/02/18 11:04:52;;;;;;;3.03;1.40;;;22.60;54.10;;;;;;6184872;23;20403;-80
2022/02/18 11:07:24;;;;;;;3.10;2.20;;;22.60;54.10;;;;;;6182198;23;20460;-81
2022/02/18 11:09:53;;;;;;;5.63;1.87;;;22.60;54.10;;;;;;6206609;23;20375;-80
2022/02/18 11:12:28;;;;;;;2.70;1.63;;;22.60;54.10;;;;;;6182585;23;20364;-79
2022/02/18 11:14:59;;;;;;;2.20;1.47;;;22.70;54.20;;;;;;6181851;23;20400;-80
2022/02/18 11:17:40;;;;;;;3.20;1.43;;;22.70;54.20;;;;;;6182499;23;20364;-79
2022/02/18 11:20:44;;;;;;;4.27;1.53;;;22.70;54.20;;;;;;6183130;23;20434;-80
2022/02/18 11:26:36;;;;;;;2.93;1.50;;;22.70;54.20;;;;;;6182845;23;20360;-79
2022/02/18 11:29:02;;;;;;;3.90;1.57;;;22.70;54.20;;;;;;6206059;23;20384;-79
2022/02/18 11:31:46;;;;;;;3.03;1.60;;;22.70;54.20;;;;;;6205317;23;20372;-80
2022/02/18 11:34:38;;;;;;;3.30;1.60;;;22.70;54.20;;;;;;6183150;23;20364;-80
2022/02/18 11:37:45;;;;;;;3.67;2.00;;;22.70;54.20;;;;;;6178507;23;20388;-80
2022/02/18 11:40:49;;;;;;;6.37;1.97;;;22.70;54.20;;;;;;6092814;23;20460;-80
2022/02/18 11:43:45;;;;;;;2.23;1.10;;;22.70;54.30;;;;;;6067146;23;20407;-80
2022/02/18 11:46:35;;;;;;;3.43;1.20;;;22.70;54.20;;;;;;6068804;23;20385;-80
2022/02/18 11:49:03;;;;;;;2.20;1.40;;;22.70;54.20;;;;;;6091074;23;20378;-79
2022/02/18 11:51:46;;;;;;;5.83;1.90;;;22.70;54.20;;;;;;6068388;23;20389;-79
2022/02/18 11:54:43;;;;;;;3.77;1.70;;;22.70;54.20;;;;;;6042433;23;20458;-79
2022/02/18 12:04:29;;;;;;;3.33;1.50;;;22.70;54.10;;;;;;6035407;23;20400;-81
2022/02/18 12:07:21;;;;;;;15.00;3.30;;;22.70;54.20;;;;;;6004638;23;20388;-80
2022/02/18 12:13:36;;;;;;;17.60;11.70;;;22.70;54.20;;;;;;6005665;23;20420;-81
2022/02/18 12:16:09;;;;;;;25.27;14.50;;;22.70;54.20;;;;;;6009956;23;20357;-80
2022/02/18 12:18:44;;;;;;;35.70;18.20;;;22.70;54.20;;;;;;6073113;23;20439;-80
2022/02/18 12:21:22;;;;;;;35.67;17.80;;;22.70;54.20;;;;;;6069267;23;20458;-80
2022/02/18 12:23:51;;;;;;;32.80;20.87;;;22.70;54.10;;;;;;6060923;23;20374;-80
2022/02/18 12:26:39;;;;;;;41.70;22.60;;;22.70;54.10;;;;;;6068836;23;20390;-80
2022/02/18 12:32:32;;;;;;;41.07;26.17;;;22.80;54.20;;;;;;5980248;24;20406;-79
2022/02/18 12:35:06;;;;;;;43.10;26.17;;;22.70;54.10;;;;;;6010325;23;20403;-82
2022/02/18 12:37:48;;;;;;;47.47;26.40;;;22.70;54.10;;;;;;6010646;23;20388;-81
2022/02/18 12:40:23;;;;;;;39.30;23.77;;;22.70;54.10;;;;;;6034818;23;20432;-80
2022/02/18 12:43:17;;;;;;;45.80;27.40;;;22.80;54.20;;;;;;6018165;23;20438;-81
2022/02/18 12:49:06;;;;;;;41.47;26.20;;;22.80;54.20;;;;;;6092338;23;20428;-81
2022/02/18 12:51:41;;;;;;;43.00;24.30;;;22.70;54.10;;;;;;6069007;23;20406;-81
2022/02/18 12:54:19;;;;;;;42.90;25.10;;;22.80;54.20;;;;;;6092481;23;20377;-81
2022/02/18 12:56:55;;;;;;;41.73;26.83;;;22.80;54.20;;;;;;6069893;23;20382;-81
2022/02/18 12:59:27;;;;;;;40.97;23.63;;;22.80;54.20;;;;;;6070350;23;20517;-80
2022/02/18 13:03:04;;;;;;;38.33;24.40;;;22.80;54.20;;;;;;6092820;23;20387;-81
2022/02/18 13:05:37;;;;;;;41.33;24.10;;;22.70;54.10;;;;;;6114807;23;20375;-81
2022/02/18 13:11:40;;;;;;;35.60;23.30;;;22.80;54.20;;;;;;6121682;23;20372;-80
2022/02/18 13:14:18;;;;;;;41.57;24.30;;;22.70;54.10;;;;;;6096945;23;20385;-80
2022/02/18 13:16:54;;;;;;;43.50;23.53;;;22.70;54.10;;;;;;6121248;23;20398;-80
2022/02/18 13:19:23;;;;;;;44.03;25.03;;;22.70;54.10;;;;;;6093821;23;20436;-80
2022/02/18 13:22:32;;;;;;;40.50;23.70;;;22.80;54.20;;;;;;6121165;23;20390;-80
2022/02/18 13:25:25;;;;;;;38.07;25.27;;;22.80;54.20;;;;;;6096945;23;20401;-81
2022/02/18 13:28:04;;;;;;;38.23;25.27;;;22.80;54.20;;;;;;6085639;23;20385;-81
2022/02/18 13:30:37;;;;;;;35.63;27.30;;;22.70;54.10;;;;;;6123129;23;20397;-80
2022/02/18 13:33:30;;;;;;;35.97;24.87;;;22.80;54.20;;;;;;6099574;23;20382;-80
2022/02/18 13:36:19;;;;;;;37.27;24.30;;;22.80;54.20;;;;;;6095647;23;20457;-81
2022/02/18 13:38:55;;;;;;;39.63;22.20;;;22.80;54.20;;;;;;6096620;23;20421;-81
2022/02/18 13:41:42;;;;;;;40.53;24.30;;;22.80;54.20;;;;;;6097338;23;20385;-82
2022/02/18 13:44:31;;;;;;;32.80;22.17;;;22.80;54.20;;;;;;5984212;24;20404;-80
2022/02/18 13:50:24;;;;;;;33.63;23.57;;;22.80;54.20;;;;;;6007926;24;20828;-80
2022/02/18 13:52:54;;;;;;;35.17;21.40;;;22.80;54.80;;;;;;6007722;24;20377;-80
2022/02/18 13:55:47;;;;;;;34.07;23.03;;;22.70;54.20;;;;;;6007361;24;20385;-80
2022/02/18 14:01:55;;;;;;;34.70;21.87;;;22.80;54.20;;;;;;6021398;23;20379;-79
2022/02/18 14:04:28;;;;;;;39.03;23.27;;;22.70;54.20;;;;;;6065217;23;20379;-80
2022/02/18 14:07:10;;;;;;;38.40;25.03;;;22.70;54.20;;;;;;6061802;23;20447;-79
2022/02/18 14:09:56;;;;;;;36.30;23.13;;;22.70;54.20;;;;;;6064706;23;20363;-79
2022/02/18 14:12:43;;;;;;;32.43;21.93;;;22.70;54.20;;;;;;6041011;23;20379;-80
2022/02/18 14:15:49;;;;;;;34.30;21.57;;;22.80;54.30;;;;;;6064507;23;20395;-80
2022/02/18 14:18:20;;;;;;;38.63;23.50;;;22.80;54.30;;;;;;6043998;23;20386;-80
2022/02/18 14:21:02;;;;;;;34.93;23.13;;;22.70;54.20;;;;;;6112238;23;20881;-80
2022/02/18 14:23:52;;;;;;;36.73;21.83;;;22.70;54.10;;;;;;6181229;23;20644;-80
2022/02/18 14:26:31;;;;;;;30.40;21.50;;;22.70;54.10;;;;;;6182455;23;20682;-81
2022/02/18 14:29:21;;;;;;;31.30;20.40;;;22.70;54.10;;;;;;6182096;23;20910;-81
2022/02/18 14:32:01;;;;;;;26.67;20.63;;;22.70;54.10;;;;;;6181538;23;20404;-81
2022/02/18 14:34:56;;;;;;;29.63;20.43;;;22.70;54.10;;;;;;6179663;23;20376;-80
2022/02/18 14:37:35;;;;;;;31.87;21.27;;;22.70;54.10;;;;;;6180345;23;20738;-80
2022/02/18 14:40:52;;;;;;;38.40;21.60;;;22.70;54.10;;;;;;6181333;23;20440;-79